If you wish to contribute or participate in the discussions about articles you are invited to join SKYbrary as a registered user

 Actions

Kalskag Airport

From SKYbrary Wiki

PALG
Airport
ICAO: PALG – IATA: KLG
Summary
Name Kalskag Airport
Region North America
Territory Alaska US.gif
Location , Alaska
Serving Kalskag
Elevation 16.764 m
55 ft
55 ft16.764 m
Type small airport
Coordinates 61° 32' 10.68" N, 160° 20' 27.60" W
Runways
Designator Length Width Surface ROPS
6/24 967 m3,172.572 ft
23 m75.459 ft
GRVL-G /


METAR
Observation PALG 171256Z AUTO 00000KT 10SM CLR 06/03 A2977 RMK AO2 SLP084 T00610028
Station KALSKAG
Date/Time 17 September 2019 12:56:00
Wind direction
Wind speed 00 kts
Lowest cloud amount n/a
Temperature 6.1°C
Dew point 2.8°C
Humidity 79%
QNH hPa
Weather condition n/a